createdAt,value
2023-04-06T00:00:15.470Z,101702.28
2023-04-06T00:02:41.946Z,101698.88
2023-04-06T00:05:08.716Z,101698.44
2023-04-06T00:07:35.396Z,101707.81
2023-04-06T00:10:02.210Z,101698.47
2023-04-06T00:12:28.613Z,101700.78
2023-04-06T00:14:55.218Z,101704.84
2023-04-06T00:17:21.730Z,101699.50
2023-04-06T00:19:48.121Z,101707.81
2023-04-06T00:22:14.592Z,101694.41
2023-04-06T00:24:41.061Z,101697.16
2023-04-06T00:27:07.488Z,101695.69
2023-04-06T00:29:33.893Z,101697.38
2023-04-06T00:32:00.533Z,101697.34
2023-04-06T00:34:27.002Z,101688.00
2023-04-06T00:36:53.444Z,101691.19
2023-04-06T00:39:21.083Z,101688.03
2023-04-06T00:41:52.448Z,101688.22
2023-04-06T00:44:19.680Z,101687.59
2023-04-06T00:46:46.202Z,101691.41
2023-04-06T00:49:12.627Z,101683.53
2023-04-06T00:51:39.102Z,101687.78
2023-04-06T00:54:06.065Z,101671.84
2023-04-06T00:56:34.472Z,101685.19
2023-04-06T00:59:01.407Z,101685.44
2023-04-06T01:01:30.534Z,101677.78
2023-04-06T01:04:01.245Z,101680.56
2023-04-06T01:06:27.711Z,101676.28
2023-04-06T01:08:59.184Z,101677.97
2023-04-06T01:11:27.228Z,101678.19
2023-04-06T01:13:54.311Z,101676.91
2023-04-06T01:16:32.403Z,101675.41
2023-04-06T01:19:12.956Z,101675.19
2023-04-06T01:21:43.988Z,101680.47
2023-04-06T01:24:27.531Z,101677.94
2023-04-06T01:27:02.336Z,101669.19
2023-04-06T01:29:37.172Z,101676.88
2023-04-06T01:32:06.405Z,101681.31
2023-04-06T01:34:37.997Z,101677.06
2023-04-06T01:37:06.155Z,101681.69
2023-04-06T01:39:32.635Z,101675.56
2023-04-06T01:42:01.746Z,101672.75
2023-04-06T01:44:31.168Z,101679.53
2023-04-06T01:47:06.730Z,101676.56
2023-04-06T01:49:33.380Z,101671.47
2023-04-06T01:52:00.607Z,101671.69
2023-04-06T01:54:27.072Z,101667.22
2023-04-06T01:57:11.811Z,101664.69
2023-04-06T01:59:43.484Z,101663.25
2023-04-06T02:02:18.517Z,101664.28
2023-04-06T02:04:54.403Z,101666.50
2023-04-06T02:07:20.971Z,101666.97
2023-04-06T02:09:47.528Z,101664.63
2023-04-06T02:12:22.186Z,101668.84
2023-04-06T02:14:48.625Z,101663.75
2023-04-06T02:17:15.404Z,101668.19
2023-04-06T02:19:41.941Z,101672.00
2023-04-06T02:22:08.401Z,101671.16
2023-04-06T02:24:34.816Z,101671.78
2023-04-06T02:27:01.526Z,101668.78
2023-04-06T02:29:27.987Z,101670.66
2023-04-06T02:31:54.802Z,101670.00
2023-04-06T02:34:21.842Z,101670.19
2023-04-06T02:36:51.833Z,101667.66
2023-04-06T02:39:18.534Z,101664.69
2023-04-06T02:41:44.955Z,101669.16
2023-04-06T02:44:14.942Z,101662.75
2023-04-06T02:46:43.395Z,101663.19
2023-04-06T02:49:10.000Z,101663.41
2023-04-06T02:51:36.610Z,101674.59
2023-04-06T02:54:15.039Z,101672.03
2023-04-06T02:56:41.481Z,101662.06
2023-04-06T02:59:08.266Z,101668.19
2023-04-06T03:01:35.333Z,101674.16
2023-04-06T03:04:04.618Z,101664.13
2023-04-06T03:06:31.381Z,101670.66
2023-04-06T03:09:04.724Z,101670.66
2023-04-06T03:11:32.971Z,101674.31
2023-04-06T03:14:00.141Z,101679.00
2023-04-06T03:16:26.774Z,101680.16
2023-04-06T03:18:53.544Z,101677.41
2023-04-06T03:21:20.566Z,101676.56
2023-04-06T03:23:51.932Z,101676.16
2023-04-06T03:26:18.701Z,101676.44
2023-04-06T03:28:45.296Z,101678.56
2023-04-06T03:31:11.871Z,101674.91
2023-04-06T03:33:46.315Z,101676.13
2023-04-06T03:36:21.854Z,101675.44
2023-04-06T03:38:48.404Z,101681.16
2023-04-06T03:41:15.232Z,101679.38
2023-04-06T03:43:48.430Z,101687.44
2023-04-06T03:46:14.866Z,101685.53
2023-04-06T03:48:41.315Z,101685.16
2023-04-06T03:51:07.736Z,101691.00
2023-04-06T03:53:34.162Z,101693.50
2023-04-06T03:56:02.732Z,101702.41
2023-04-06T03:58:30.605Z,101702.03
2023-04-06T04:00:57.083Z,101707.56
2023-04-06T04:03:24.617Z,101702.41
2023-04-06T04:05:51.948Z,101707.34
2023-04-06T04:08:18.741Z,101706.88
2023-04-06T04:10:45.814Z,101706.03
2023-04-06T04:13:13.167Z,101715.97
2023-04-06T04:15:41.660Z,101717.44
2023-04-06T04:18:09.476Z,101718.94
2023-04-06T04:20:36.184Z,101713.06
2023-04-06T04:23:02.652Z,101708.41
2023-04-06T04:25:32.072Z,101712.00
2023-04-06T04:27:58.741Z,101714.16
2023-04-06T04:30:25.179Z,101714.16
2023-04-06T04:32:51.692Z,101704.19
2023-04-06T04:35:21.346Z,101716.00
2023-04-06T04:37:47.864Z,101713.06
2023-04-06T04:40:14.433Z,101722.19
2023-04-06T04:42:52.197Z,101717.69
2023-04-06T04:45:30.068Z,101721.31
2023-04-06T04:47:58.895Z,101717.91
2023-04-06T04:50:30.785Z,101713.84
2023-04-06T04:52:58.481Z,101717.06
2023-04-06T04:55:27.035Z,101719.19
2023-04-06T04:57:56.297Z,101725.78
2023-04-06T05:00:31.625Z,101723.41
2023-04-06T05:02:59.274Z,101724.78
2023-04-06T05:05:28.689Z,101719.69
2023-04-06T05:07:55.273Z,101721.13
2023-04-06T05:10:36.330Z,101721.38
2023-04-06T05:13:03.464Z,101728.19
2023-04-06T05:15:29.994Z,101735.53
2023-04-06T05:18:02.444Z,101730.75
2023-04-06T05:20:32.723Z,101732.59
2023-04-06T05:22:59.863Z,101732.59
2023-04-06T05:25:26.682Z,101728.38
2023-04-06T05:27:56.658Z,101737.50
2023-04-06T05:30:28.934Z,101739.59
2023-04-06T05:32:55.617Z,101733.13
2023-04-06T05:35:24.461Z,101736.78
2023-04-06T05:37:54.703Z,101733.66
2023-04-06T05:40:24.215Z,101733.09
2023-04-06T05:42:51.193Z,101739.28
2023-04-06T05:45:19.348Z,101741.19
2023-04-06T05:47:51.228Z,101741.66
2023-04-06T05:50:27.614Z,101738.22
2023-04-06T05:52:54.096Z,101742.47
2023-04-06T05:55:22.693Z,101737.56
2023-04-06T05:57:56.728Z,101739.88
2023-04-06T06:00:23.211Z,101737.81
2023-04-06T06:03:00.375Z,101744.50
2023-04-06T06:05:30.013Z,101739.81
2023-04-06T06:08:02.973Z,101736.06
2023-04-06T06:10:30.187Z,101738.03
2023-04-06T06:12:56.895Z,101737.34
2023-04-06T06:15:23.411Z,101748.22
2023-04-06T06:17:49.866Z,101746.47
2023-04-06T06:20:17.311Z,101736.28
2023-04-06T06:22:44.359Z,101745.41
2023-04-06T06:25:16.621Z,101739.34
2023-04-06T06:27:45.474Z,101749.72
2023-04-06T06:30:12.164Z,101746.38
2023-04-06T06:32:41.578Z,101745.91
2023-04-06T06:35:09.130Z,101746.91
2023-04-06T06:37:35.625Z,101747.19
2023-04-06T06:40:02.934Z,101743.81
2023-04-06T06:42:31.539Z,101740.97
2023-04-06T06:45:08.286Z,101738.72
2023-04-06T06:47:34.770Z,101743.25
2023-04-06T06:50:01.284Z,101748.34
2023-04-06T06:52:27.839Z,101746.66
2023-04-06T06:54:56.413Z,101741.72
2023-04-06T06:57:23.962Z,101741.22
2023-04-06T06:59:51.008Z,101735.63
2023-04-06T07:02:19.394Z,101739.88
2023-04-06T07:04:49.301Z,101733.91
2023-04-06T07:07:16.384Z,101735.81
2023-04-06T07:09:43.238Z,101739.09
2023-04-06T07:12:09.729Z,101737.63
2023-04-06T07:14:37.704Z,101744.34
2023-04-06T07:17:04.222Z,101740.72
2023-04-06T07:19:31.847Z,101742.13
2023-04-06T07:21:58.402Z,101750.94
2023-04-06T07:24:27.427Z,101745.09
2023-04-06T07:26:53.867Z,101748.25
2023-04-06T07:29:20.629Z,101741.28
2023-04-06T07:31:47.599Z,101750.78
2023-04-06T07:34:15.527Z,101741.59
2023-04-06T07:36:42.218Z,101745.75
2023-04-06T07:39:08.827Z,101742.13
2023-04-06T07:41:36.158Z,101739.84
2023-04-06T07:44:02.630Z,101742.53
2023-04-06T07:46:29.208Z,101744.25
2023-04-06T07:48:58.253Z,101730.34
2023-04-06T07:51:26.503Z,101736.44
2023-04-06T07:53:53.098Z,101732.41
2023-04-06T07:56:19.571Z,101745.25
2023-04-06T07:58:45.996Z,101728.63
2023-04-06T08:01:12.405Z,101737.16
2023-04-06T08:03:39.014Z,101735.81
2023-04-06T08:06:06.101Z,101734.16
2023-04-06T08:08:32.778Z,101737.84
2023-04-06T08:11:01.483Z,101734.13
2023-04-06T08:13:29.067Z,101728.91
2023-04-06T08:15:55.905Z,101738.34
2023-04-06T08:18:23.395Z,101735.53
2023-04-06T08:20:50.649Z,101725.94
2023-04-06T08:23:17.046Z,101729.16
2023-04-06T08:25:44.163Z,101730.00
2023-04-06T08:28:10.621Z,101733.59
2023-04-06T08:30:38.166Z,101730.69
2023-04-06T08:33:04.577Z,101736.34
2023-04-06T08:35:31.019Z,101733.63
2023-04-06T08:37:57.933Z,101735.03
2023-04-06T08:40:24.372Z,101729.06
2023-04-06T08:42:54.969Z,101725.13
2023-04-06T08:45:22.329Z,101732.59
2023-04-06T08:47:51.090Z,101733.25
2023-04-06T08:50:18.130Z,101734.31
2023-04-06T08:52:49.293Z,101734.69
2023-04-06T08:55:16.336Z,101736.19
2023-04-06T08:57:44.352Z,101739.97
2023-04-06T09:00:12.047Z,101734.41
2023-04-06T09:02:44.601Z,101734.19
2023-04-06T09:05:11.364Z,101728.38
2023-04-06T09:07:38.333Z,101729.84
2023-04-06T09:10:08.221Z,101727.34
2023-04-06T09:12:35.522Z,101725.13
2023-04-06T09:15:02.993Z,101722.47
2023-04-06T09:17:34.557Z,101719.53
2023-04-06T09:20:01.975Z,101719.00
2023-04-06T09:22:39.756Z,101712.84
2023-04-06T09:25:07.191Z,101709.72
2023-04-06T09:27:35.551Z,101713.50
2023-04-06T09:30:07.621Z,101711.59
2023-04-06T09:32:46.604Z,101696.84
2023-04-06T09:35:13.497Z,101702.44
2023-04-06T09:37:39.916Z,101707.72
2023-04-06T09:40:08.316Z,101704.84
2023-04-06T09:42:35.901Z,101705.59
2023-04-06T09:45:03.750Z,101694.59
2023-04-06T09:47:34.260Z,101704.06
2023-04-06T09:50:01.728Z,101690.09
2023-04-06T09:52:38.264Z,101692.09
2023-04-06T09:55:06.294Z,101695.81
2023-04-06T09:57:51.360Z,101687.41
2023-04-06T10:00:20.246Z,101686.03
2023-04-06T10:02:59.121Z,101687.44
2023-04-06T10:05:38.415Z,101685.44
2023-04-06T10:08:09.513Z,101687.94
2023-04-06T10:10:36.187Z,101682.94
2023-04-06T10:13:03.053Z,101688.28
2023-04-06T10:15:30.836Z,101674.53
2023-04-06T10:18:01.622Z,101671.78
2023-04-06T10:20:51.397Z,101679.09
2023-04-06T10:23:32.008Z,101675.44
2023-04-06T10:26:00.522Z,101670.88
2023-04-06T10:28:32.083Z,101672.28
2023-04-06T10:31:00.249Z,101677.69
2023-04-06T10:33:27.585Z,101666.97
2023-04-06T10:35:54.937Z,101663.63
2023-04-06T10:38:22.947Z,101664.47
2023-04-06T10:40:49.792Z,101672.88
2023-04-06T10:43:23.433Z,101678.22
2023-04-06T10:45:57.770Z,101665.81
2023-04-06T10:48:25.038Z,101661.84
2023-04-06T10:50:53.431Z,101659.59
2023-04-06T10:53:25.047Z,101656.59
2023-04-06T10:55:52.737Z,101664.34
2023-04-06T10:58:19.879Z,101671.72
2023-04-06T11:00:50.654Z,101663.06
2023-04-06T11:03:18.925Z,101662.22
2023-04-06T11:05:48.203Z,101667.84
2023-04-06T11:08:44.161Z,101661.91
2023-04-06T11:11:19.488Z,101659.66
2023-04-06T11:13:58.003Z,101643.63
2023-04-06T11:16:32.622Z,101652.66
2023-04-06T11:18:59.014Z,101647.88
2023-04-06T11:21:49.342Z,101649.81
2023-04-06T11:24:20.527Z,101643.41
2023-04-06T11:26:50.032Z,101644.78
2023-04-06T11:29:18.593Z,101655.19
2023-04-06T11:31:50.079Z,101650.09
2023-04-06T11:34:21.092Z,101641.13
2023-04-06T11:36:48.375Z,101629.81
2023-04-06T11:39:20.389Z,101633.19
2023-04-06T11:41:54.023Z,101632.41
2023-04-06T11:44:32.948Z,101625.38
2023-04-06T11:46:59.802Z,101619.19
2023-04-06T11:49:30.417Z,101624.50
2023-04-06T11:51:58.325Z,101627.59
2023-04-06T11:54:34.484Z,101627.94
2023-04-06T11:57:01.658Z,101620.63
2023-04-06T11:59:28.332Z,101618.91
2023-04-06T12:01:54.817Z,101611.59
2023-04-06T12:04:21.667Z,101611.28
2023-04-06T12:06:49.171Z,101619.94
2023-04-06T12:09:16.443Z,101609.41
2023-04-06T12:11:42.919Z,101612.31
2023-04-06T12:14:09.624Z,101615.16
2023-04-06T12:16:36.464Z,101610.44
2023-04-06T12:19:04.251Z,101609.09
2023-04-06T12:21:34.925Z,101613.00
2023-04-06T12:24:02.284Z,101610.47
2023-04-06T12:26:29.065Z,101604.03
2023-04-06T12:28:55.464Z,101597.56
2023-04-06T12:31:23.665Z,101603.44
2023-04-06T12:33:51.278Z,101597.81
2023-04-06T12:36:20.139Z,101599.53
2023-04-06T12:38:48.653Z,101596.97
2023-04-06T12:41:15.780Z,101598.63
2023-04-06T12:43:42.921Z,101592.47
2023-04-06T12:46:09.531Z,101595.31
2023-04-06T12:48:36.502Z,101593.31
2023-04-06T12:51:04.770Z,101587.09
2023-04-06T12:53:31.713Z,101587.66
2023-04-06T12:55:59.123Z,101581.06
2023-04-06T12:58:27.685Z,101585.94
2023-04-06T13:00:54.134Z,101577.53
2023-04-06T13:03:22.074Z,101575.91
2023-04-06T13:05:49.835Z,101573.63
2023-04-06T13:08:17.079Z,101575.53
2023-04-06T13:10:51.753Z,101575.63
2023-04-06T13:13:19.050Z,101570.88
2023-04-06T13:15:45.985Z,101566.94
2023-04-06T13:18:12.511Z,101573.09
2023-04-06T13:20:38.955Z,101562.97
2023-04-06T13:23:05.393Z,101563.91
2023-04-06T13:25:33.619Z,101567.66
2023-04-06T13:28:00.300Z,101551.28
2023-04-06T13:30:26.984Z,101553.41
2023-04-06T13:32:53.394Z,101548.94
2023-04-06T13:35:19.863Z,101547.19
2023-04-06T13:37:46.278Z,101548.84
2023-04-06T13:40:12.865Z,101550.25
2023-04-06T13:42:41.666Z,101552.06
2023-04-06T13:45:08.860Z,101544.66
2023-04-06T13:47:35.874Z,101537.38
2023-04-06T13:50:02.340Z,101538.13
2023-04-06T13:52:28.735Z,101538.84
2023-04-06T13:54:55.301Z,101530.22
2023-04-06T13:57:21.747Z,101538.56
2023-04-06T13:59:48.914Z,101535.31
2023-04-06T14:02:15.572Z,101530.16
2023-04-06T14:04:42.132Z,101530.13
2023-04-06T14:07:08.578Z,101540.00
2023-04-06T14:09:35.463Z,101529.41
2023-04-06T14:12:01.906Z,101525.88
2023-04-06T14:14:28.505Z,101530.84
2023-04-06T14:16:55.547Z,101528.31
2023-04-06T14:19:22.561Z,101527.28
2023-04-06T14:21:49.806Z,101521.56
2023-04-06T14:24:16.949Z,101525.88
2023-04-06T14:26:43.739Z,101523.06
2023-04-06T14:29:10.608Z,101528.50
2023-04-06T14:31:37.942Z,101523.06
2023-04-06T14:34:04.754Z,101523.66
2023-04-06T14:36:38.809Z,101521.59
2023-04-06T14:39:06.809Z,101518.44
2023-04-06T14:41:34.460Z,101522.75
2023-04-06T14:44:01.266Z,101512.25
2023-04-06T14:46:28.286Z,101512.84
2023-04-06T14:48:58.676Z,101518.25
2023-04-06T14:51:28.107Z,101517.53
2023-04-06T14:53:55.065Z,101506.88
2023-04-06T14:56:23.001Z,101518.84
2023-04-06T14:58:51.650Z,101504.81
2023-04-06T15:01:19.414Z,101510.75
2023-04-06T15:03:46.123Z,101503.25
2023-04-06T15:06:16.143Z,101515.22
2023-04-06T15:08:46.242Z,101500.97
2023-04-06T15:11:13.618Z,101510.72
2023-04-06T15:13:40.867Z,101505.78
2023-04-06T15:16:07.793Z,101516.06
2023-04-06T15:18:35.823Z,101509.13
2023-04-06T15:21:02.501Z,101509.47
2023-04-06T15:23:31.038Z,101514.38
2023-04-06T15:25:58.724Z,101511.66
2023-04-06T15:28:25.256Z,101516.13
2023-04-06T15:30:51.938Z,101517.66
2023-04-06T15:33:21.094Z,101507.41
2023-04-06T15:35:47.623Z,101510.72
2023-04-06T15:38:14.165Z,101495.94
2023-04-06T15:40:48.594Z,101498.97
2023-04-06T15:43:15.951Z,101504.13
2023-04-06T15:45:42.524Z,101501.81
2023-04-06T15:48:09.486Z,101496.78
2023-04-06T15:50:36.549Z,101499.66
2023-04-06T15:53:03.041Z,101494.09
2023-04-06T15:55:29.461Z,101503.00
2023-04-06T15:57:56.100Z,101508.78
2023-04-06T16:00:22.776Z,101502.72
2023-04-06T16:02:49.348Z,101503.44
2023-04-06T16:05:15.916Z,101511.28
2023-04-06T16:07:43.025Z,101503.41
2023-04-06T16:10:10.031Z,101509.06
2023-04-06T16:12:36.422Z,101504.31
2023-04-06T16:15:02.945Z,101510.75
2023-04-06T16:17:29.463Z,101503.72
2023-04-06T16:19:56.129Z,101500.66
2023-04-06T16:22:22.537Z,101500.06
2023-04-06T16:24:48.915Z,101511.03
2023-04-06T16:27:15.677Z,101511.88
2023-04-06T16:29:42.080Z,101507.69
2023-04-06T16:32:11.043Z,101513.00
2023-04-06T16:34:37.712Z,101513.28
2023-04-06T16:37:04.123Z,101515.81
2023-04-06T16:39:30.608Z,101513.84
2023-04-06T16:41:57.445Z,101510.19
2023-04-06T16:44:23.975Z,101512.38
2023-04-06T16:46:50.952Z,101503.41
2023-04-06T16:49:19.380Z,101512.06
2023-04-06T16:51:45.960Z,101512.44
2023-04-06T16:54:12.374Z,101509.03
2023-04-06T16:56:38.774Z,101505.06
2023-04-06T16:59:08.028Z,101503.88
2023-04-06T17:01:34.520Z,101504.91
2023-04-06T17:04:02.003Z,101506.00
2023-04-06T17:06:28.583Z,101504.13
2023-04-06T17:08:55.025Z,101513.94
2023-04-06T17:11:27.775Z,101509.47
2023-04-06T17:13:54.850Z,101509.22
2023-04-06T17:16:21.504Z,101515.44
2023-04-06T17:18:47.944Z,101511.72
2023-04-06T17:21:14.604Z,101516.94
2023-04-06T17:23:41.640Z,101514.16
2023-04-06T17:26:08.314Z,101513.84
2023-04-06T17:28:34.770Z,101515.50
2023-04-06T17:31:01.325Z,101515.44
2023-04-06T17:33:28.278Z,101525.09
2023-04-06T17:35:54.730Z,101525.50
2023-04-06T17:38:21.426Z,101530.44
2023-04-06T17:40:47.831Z,101528.66
2023-04-06T17:43:14.247Z,101524.75
2023-04-06T17:45:40.734Z,101527.97
2023-04-06T17:48:07.730Z,101533.00
2023-04-06T17:50:38.877Z,101538.69
2023-04-06T17:53:05.610Z,101541.09
2023-04-06T17:55:32.011Z,101542.75
2023-04-06T17:57:58.410Z,101538.31
2023-04-06T18:00:25.641Z,101532.56
2023-04-06T18:02:53.630Z,101546.72
2023-04-06T18:05:21.271Z,101551.59
2023-04-06T18:07:48.480Z,101551.25
2023-04-06T18:10:15.041Z,101546.66
2023-04-06T18:12:41.496Z,101552.31
2023-04-06T18:15:08.165Z,101554.44
2023-04-06T18:17:34.906Z,101557.09
2023-04-06T18:20:01.422Z,101554.66
2023-04-06T18:22:28.453Z,101551.75
2023-04-06T18:24:54.925Z,101569.03
2023-04-06T18:27:21.681Z,101566.38
2023-04-06T18:29:48.104Z,101560.19
2023-04-06T18:32:16.591Z,101566.63
2023-04-06T18:34:43.164Z,101562.59
2023-04-06T18:37:09.675Z,101558.53
2023-04-06T18:39:36.236Z,101563.47
2023-04-06T18:42:03.155Z,101565.34
2023-04-06T18:44:31.579Z,101575.00
2023-04-06T18:46:58.214Z,101568.41
2023-04-06T18:49:24.684Z,101571.78
2023-04-06T18:51:51.212Z,101573.75
2023-04-06T18:54:17.615Z,101570.88
2023-04-06T18:56:44.009Z,101578.66
2023-04-06T18:59:10.654Z,101580.44
2023-04-06T19:01:40.785Z,101587.44
2023-04-06T19:04:07.429Z,101586.09
2023-04-06T19:06:33.949Z,101589.13
2023-04-06T19:09:00.379Z,101591.16
2023-04-06T19:11:27.276Z,101590.06
2023-04-06T19:13:53.890Z,101599.63
2023-04-06T19:16:20.619Z,101589.03
2023-04-06T19:18:47.061Z,101588.69
2023-04-06T19:21:21.525Z,101583.41
2023-04-06T19:23:49.518Z,101588.91
2023-04-06T19:26:17.060Z,101585.94
2023-04-06T19:28:44.388Z,101588.72
2023-04-06T19:31:13.002Z,101586.16
2023-04-06T19:33:40.413Z,101586.59
2023-04-06T19:36:07.719Z,101584.66
2023-04-06T19:38:34.619Z,101586.09
2023-04-06T19:41:01.741Z,101588.38
2023-04-06T19:43:28.269Z,101583.09
2023-04-06T19:45:54.727Z,101585.38
2023-04-06T19:48:21.262Z,101590.38
2023-04-06T19:50:47.723Z,101590.78
2023-04-06T19:53:14.166Z,101586.88
2023-04-06T19:55:40.701Z,101586.25
2023-04-06T19:58:07.126Z,101587.03
2023-04-06T20:00:33.583Z,101584.81
2023-04-06T20:03:00.281Z,101587.66
2023-04-06T20:05:26.954Z,101592.22
2023-04-06T20:07:53.458Z,101593.56
2023-04-06T20:10:19.863Z,101589.31
2023-04-06T20:12:46.306Z,101595.16
2023-04-06T20:15:12.760Z,101589.13
2023-04-06T20:17:39.225Z,101593.50
2023-04-06T20:20:06.254Z,101586.72
2023-04-06T20:22:32.653Z,101587.84
2023-04-06T20:24:59.080Z,101594.59
2023-04-06T20:27:25.549Z,101598.00
2023-04-06T20:29:52.074Z,101600.91
2023-04-06T20:32:20.997Z,101604.88
2023-04-06T20:34:48.294Z,101599.94
2023-04-06T20:37:15.163Z,101598.97
2023-04-06T20:39:41.874Z,101597.16
2023-04-06T20:42:08.559Z,101593.25
2023-04-06T20:44:35.623Z,101595.94
2023-04-06T20:47:03.628Z,101598.13
2023-04-06T20:49:30.181Z,101597.63
2023-04-06T20:51:57.194Z,101592.19
2023-04-06T20:54:23.638Z,101591.34
2023-04-06T20:56:50.227Z,101591.56
2023-04-06T20:59:16.639Z,101592.69
2023-04-06T21:01:43.369Z,101594.50
2023-04-06T21:04:10.040Z,101596.03
2023-04-06T21:06:36.628Z,101593.16
2023-04-06T21:09:03.553Z,101592.19
2023-04-06T21:11:29.990Z,101598.94
2023-04-06T21:13:56.501Z,101592.41
2023-04-06T21:16:23.126Z,101598.91
2023-04-06T21:18:49.571Z,101588.75
2023-04-06T21:21:15.975Z,101589.50
2023-04-06T21:23:42.370Z,101594.44
2023-04-06T21:26:12.140Z,101586.56
2023-04-06T21:28:38.855Z,101589.81
2023-04-06T21:31:08.792Z,101590.38
2023-04-06T21:33:35.402Z,101589.91
2023-04-06T21:36:08.417Z,101595.34
2023-04-06T21:38:35.224Z,101588.78
2023-04-06T21:41:01.683Z,101588.06
2023-04-06T21:43:28.103Z,101593.47
2023-04-06T21:45:54.617Z,101595.00
2023-04-06T21:48:21.031Z,101585.09
2023-04-06T21:50:47.480Z,101586.50
2023-04-06T21:53:13.938Z,101589.38
2023-04-06T21:55:45.996Z,101586.28
2023-04-06T21:58:12.617Z,101588.75
2023-04-06T22:00:39.197Z,101585.13
2023-04-06T22:03:05.756Z,101580.91
2023-04-06T22:05:32.695Z,101579.38
2023-04-06T22:08:02.032Z,101577.72
2023-04-06T22:10:29.261Z,101584.78
2023-04-06T22:12:55.841Z,101580.13
2023-04-06T22:15:22.309Z,101582.75
2023-04-06T22:17:48.730Z,101586.88
2023-04-06T22:20:15.595Z,101583.72
2023-04-06T22:22:42.067Z,101587.28
2023-04-06T22:25:08.923Z,101577.31
2023-04-06T22:27:35.543Z,101575.63
2023-04-06T22:30:02.594Z,101584.63
2023-04-06T22:32:29.167Z,101581.94
2023-04-06T22:34:55.765Z,101578.38
2023-04-06T22:37:22.198Z,101584.22
2023-04-06T22:39:48.598Z,101578.78
2023-04-06T22:42:14.998Z,101571.50
2023-04-06T22:44:41.425Z,101578.06
2023-04-06T22:47:07.915Z,101576.66
2023-04-06T22:49:34.344Z,101579.66
2023-04-06T22:52:00.806Z,101579.03
2023-04-06T22:54:27.206Z,101577.56
2023-04-06T22:56:53.796Z,101578.94
2023-04-06T22:59:20.627Z,101585.34
2023-04-06T23:01:47.088Z,101579.44
2023-04-06T23:04:13.615Z,101574.78
2023-04-06T23:06:40.075Z,101569.91
2023-04-06T23:09:06.484Z,101579.31
2023-04-06T23:11:33.211Z,101584.03
2023-04-06T23:13:59.610Z,101583.84
2023-04-06T23:16:26.398Z,101581.28
2023-04-06T23:18:52.820Z,101579.78
2023-04-06T23:21:19.204Z,101577.72
2023-04-06T23:23:45.921Z,101575.53
2023-04-06T23:26:12.367Z,101579.22
2023-04-06T23:28:38.744Z,101574.59
2023-04-06T23:31:05.179Z,101571.63
2023-04-06T23:33:31.565Z,101575.47
2023-04-06T23:35:57.961Z,101568.47
2023-04-06T23:38:24.456Z,101567.63
2023-04-06T23:40:51.254Z,101568.22
2023-04-06T23:43:17.645Z,101567.19
2023-04-06T23:45:44.062Z,101569.38
2023-04-06T23:48:10.767Z,101576.41
2023-04-06T23:50:37.786Z,101569.38
2023-04-06T23:53:04.704Z,101564.94
2023-04-06T23:55:31.590Z,101565.59
2023-04-06T23:57:57.985Z,101570.09
